createdAt,value
2023-01-17T00:01:49.543Z,91.20
2023-01-17T00:04:35.870Z,90.80
2023-01-17T00:07:20.853Z,90.94
2023-01-17T00:09:53.759Z,91.12
2023-01-17T00:12:21.220Z,91.07
2023-01-17T00:14:48.848Z,90.92
2023-01-17T00:17:15.922Z,90.68
2023-01-17T00:20:01.272Z,90.72
2023-01-17T00:22:48.890Z,90.72
2023-01-17T00:25:37.383Z,90.82
2023-01-17T00:28:05.121Z,90.60
2023-01-17T00:30:31.890Z,90.43
2023-01-17T00:32:58.885Z,90.59
2023-01-17T00:35:27.807Z,90.41
2023-01-17T00:38:02.255Z,90.45
2023-01-17T00:40:28.832Z,90.19
2023-01-17T00:43:14.305Z,90.20
2023-01-17T00:46:01.784Z,89.92
2023-01-17T00:48:47.251Z,90.06
2023-01-17T00:51:32.666Z,89.81
2023-01-17T00:54:19.121Z,89.71
2023-01-17T00:57:04.378Z,89.51
2023-01-17T00:59:50.203Z,89.52
2023-01-17T01:02:35.608Z,89.56
2023-01-17T01:05:20.993Z,89.51
2023-01-17T01:08:06.461Z,89.39
2023-01-17T01:10:52.515Z,89.36
2023-01-17T01:13:40.845Z,89.38
2023-01-17T01:16:26.711Z,89.20
2023-01-17T01:19:12.090Z,89.25
2023-01-17T01:21:57.714Z,88.99
2023-01-17T01:24:42.894Z,88.96
2023-01-17T01:27:28.702Z,88.90
2023-01-17T01:30:14.149Z,89.02
2023-01-17T01:32:59.702Z,88.83
2023-01-17T01:35:26.711Z,88.88
2023-01-17T01:38:02.341Z,88.88
2023-01-17T01:40:29.046Z,88.71
2023-01-17T01:42:58.055Z,88.73
2023-01-17T01:45:30.308Z,88.68
2023-01-17T01:48:02.857Z,88.74
2023-01-17T01:50:31.986Z,88.77
2023-01-17T01:53:02.577Z,88.80
2023-01-17T01:55:35.950Z,88.95
2023-01-17T01:58:10.289Z,89.06
2023-01-17T02:00:38.780Z,88.86
2023-01-17T02:03:15.404Z,88.99
2023-01-17T02:05:44.200Z,88.85
2023-01-17T02:08:22.920Z,88.71
2023-01-17T02:10:51.089Z,88.75
2023-01-17T02:13:20.018Z,88.81
2023-01-17T02:16:10.044Z,88.72
2023-01-17T02:18:52.283Z,88.49
2023-01-17T02:21:45.133Z,88.70
2023-01-17T02:24:49.506Z,88.50
2023-01-17T02:27:43.003Z,88.31
2023-01-17T02:30:23.690Z,88.59
2023-01-17T02:33:16.863Z,88.65
2023-01-17T02:35:57.260Z,88.68
2023-01-17T02:38:32.787Z,88.76
2023-01-17T02:41:31.166Z,88.58
2023-01-17T02:43:57.728Z,88.56
2023-01-17T02:46:24.795Z,88.80
2023-01-17T02:48:51.956Z,88.75
2023-01-17T02:51:45.711Z,88.83
2023-01-17T02:54:38.033Z,88.87
2023-01-17T02:57:18.297Z,88.82
2023-01-17T03:00:03.850Z,88.88
2023-01-17T03:02:52.103Z,88.89
2023-01-17T03:05:27.609Z,88.71
2023-01-17T03:07:55.149Z,88.93
2023-01-17T03:10:22.638Z,88.79
2023-01-17T03:12:50.053Z,88.82
2023-01-17T03:15:17.849Z,88.86
2023-01-17T03:17:49.374Z,88.89
2023-01-17T03:20:16.558Z,89.00
2023-01-17T03:22:43.059Z,89.09
2023-01-17T03:25:09.683Z,89.19
2023-01-17T03:27:36.345Z,89.13
2023-01-17T03:30:03.529Z,89.05
2023-01-17T03:32:30.196Z,88.91
2023-01-17T03:34:56.993Z,89.09
2023-01-17T03:37:23.798Z,88.98
2023-01-17T03:39:50.587Z,89.04
2023-01-17T03:42:17.404Z,89.24
2023-01-17T03:44:43.931Z,89.23
2023-01-17T03:47:12.284Z,89.19
2023-01-17T03:49:39.658Z,89.47
2023-01-17T03:52:07.470Z,89.39
2023-01-17T03:54:34.407Z,89.25
2023-01-17T03:57:01.002Z,89.39
2023-01-17T03:59:27.897Z,89.54
2023-01-17T04:01:54.532Z,89.46
2023-01-17T04:04:21.238Z,89.41
2023-01-17T04:06:48.461Z,89.32
2023-01-17T04:09:18.139Z,89.51
2023-01-17T04:11:45.066Z,89.69
2023-01-17T04:14:14.690Z,89.64
2023-01-17T04:16:42.473Z,89.75
2023-01-17T04:19:13.171Z,89.87
2023-01-17T04:21:39.922Z,90.06
2023-01-17T04:24:07.147Z,90.11
2023-01-17T04:26:33.718Z,90.12
2023-01-17T04:29:00.347Z,90.14
2023-01-17T04:31:26.946Z,90.16
2023-01-17T04:33:53.794Z,90.08
2023-01-17T04:36:20.397Z,90.22
2023-01-17T04:38:46.963Z,90.54
2023-01-17T04:41:13.720Z,90.73
2023-01-17T04:43:40.469Z,90.82
2023-01-17T04:46:10.357Z,90.79
2023-01-17T04:48:37.178Z,90.94
2023-01-17T04:51:05.272Z,91.04
2023-01-17T04:53:31.933Z,91.02
2023-01-17T04:55:58.600Z,90.92
2023-01-17T04:58:25.263Z,90.95
2023-01-17T05:00:52.185Z,90.82
2023-01-17T05:03:20.488Z,90.92
2023-01-17T05:05:48.116Z,90.85
2023-01-17T05:08:15.243Z,90.80
2023-01-17T05:10:42.091Z,90.62
2023-01-17T05:13:09.305Z,90.52
2023-01-17T05:15:37.002Z,90.52
2023-01-17T05:18:08.561Z,90.37
2023-01-17T05:20:35.925Z,90.46
2023-01-17T05:23:02.563Z,90.27
2023-01-17T05:25:32.111Z,90.22
2023-01-17T05:28:02.671Z,90.21
2023-01-17T05:30:30.918Z,90.28
2023-01-17T05:32:59.092Z,90.48
2023-01-17T05:35:29.017Z,90.66
2023-01-17T05:37:56.335Z,90.82
2023-01-17T05:40:25.794Z,90.92
2023-01-17T05:42:55.623Z,90.69
2023-01-17T05:45:24.455Z,90.41
2023-01-17T05:47:53.254Z,90.42
2023-01-17T05:50:23.175Z,90.35
2023-01-17T05:52:55.093Z,90.39
2023-01-17T05:55:22.971Z,90.19
2023-01-17T05:57:50.679Z,90.17
2023-01-17T06:00:18.005Z,90.27
2023-01-17T06:02:45.704Z,90.30
2023-01-17T06:05:13.277Z,90.29
2023-01-17T06:07:46.575Z,90.24
2023-01-17T06:10:17.930Z,90.31
2023-01-17T06:12:45.873Z,90.40
2023-01-17T06:15:13.891Z,90.50
2023-01-17T06:17:40.647Z,90.27
2023-01-17T06:20:09.235Z,90.32
2023-01-17T06:22:37.803Z,90.08
2023-01-17T06:25:07.608Z,89.96
2023-01-17T06:27:34.464Z,90.05
2023-01-17T06:30:00.991Z,90.28
2023-01-17T06:32:27.886Z,90.27
2023-01-17T06:34:54.470Z,90.36
2023-01-17T06:37:21.262Z,90.40
2023-01-17T06:39:48.088Z,90.36
2023-01-17T06:42:14.784Z,90.38
2023-01-17T06:44:41.377Z,90.30
2023-01-17T06:47:07.953Z,90.26
2023-01-17T06:49:34.777Z,90.22
2023-01-17T06:52:01.416Z,89.93
2023-01-17T06:54:28.033Z,89.87
2023-01-17T06:56:54.687Z,89.83
2023-01-17T06:59:21.474Z,90.03
2023-01-17T07:01:48.197Z,89.99
2023-01-17T07:04:15.252Z,90.10
2023-01-17T07:06:41.951Z,90.05
2023-01-17T07:09:08.512Z,89.91
2023-01-17T07:11:35.183Z,89.94
2023-01-17T07:14:01.805Z,89.92
2023-01-17T07:16:28.491Z,89.97
2023-01-17T07:18:57.117Z,89.93
2023-01-17T07:21:23.887Z,90.04
2023-01-17T07:23:50.645Z,90.08
2023-01-17T07:26:18.664Z,89.94
2023-01-17T07:28:45.372Z,90.04
2023-01-17T07:31:12.062Z,89.98
2023-01-17T07:33:38.630Z,90.05
2023-01-17T07:36:07.665Z,89.88
2023-01-17T07:38:34.747Z,89.99
2023-01-17T07:41:01.474Z,89.92
2023-01-17T07:43:28.185Z,89.96
2023-01-17T07:45:54.966Z,89.82
2023-01-17T07:48:24.311Z,89.90
2023-01-17T07:50:57.349Z,89.82
2023-01-17T07:53:30.132Z,89.54
2023-01-17T07:56:04.807Z,89.92
2023-01-17T07:58:32.842Z,89.82
2023-01-17T08:01:08.221Z,89.76
2023-01-17T08:03:40.306Z,89.92
2023-01-17T08:06:16.538Z,89.71
2023-01-17T08:08:43.421Z,89.59
2023-01-17T08:11:10.002Z,89.61
2023-01-17T08:13:36.706Z,89.42
2023-01-17T08:16:03.694Z,89.41
2023-01-17T08:18:30.879Z,89.47
2023-01-17T08:20:57.473Z,89.38
2023-01-17T08:23:24.142Z,89.30
2023-01-17T08:25:51.075Z,89.35
2023-01-17T08:28:17.976Z,89.20
2023-01-17T08:30:44.563Z,88.85
2023-01-17T08:33:11.452Z,88.99
2023-01-17T08:35:38.051Z,88.85
2023-01-17T08:38:05.039Z,88.71
2023-01-17T08:40:35.271Z,88.64
2023-01-17T08:43:01.877Z,88.51
2023-01-17T08:45:29.395Z,88.28
2023-01-17T08:47:58.727Z,88.17
2023-01-17T08:50:26.137Z,88.05
2023-01-17T08:53:00.930Z,88.17
2023-01-17T08:55:27.897Z,87.80
2023-01-17T08:57:54.935Z,87.79
2023-01-17T09:00:22.008Z,87.69
2023-01-17T09:02:51.519Z,87.49
2023-01-17T09:05:18.240Z,87.46
2023-01-17T09:07:44.855Z,87.31
2023-01-17T09:10:19.710Z,87.19
2023-01-17T09:12:48.240Z,86.99
2023-01-17T09:15:17.849Z,86.81
2023-01-17T09:17:44.819Z,86.96
2023-01-17T09:20:11.916Z,86.84
2023-01-17T09:22:39.139Z,86.47
2023-01-17T09:25:06.935Z,86.32
2023-01-17T09:27:33.723Z,86.05
2023-01-17T09:30:00.471Z,86.09
2023-01-17T09:32:27.112Z,85.70
2023-01-17T09:34:53.777Z,85.78
2023-01-17T09:37:20.347Z,85.62
2023-01-17T09:39:46.873Z,85.43
2023-01-17T09:42:36.438Z,85.40
2023-01-17T09:45:03.261Z,85.23
2023-01-17T09:47:45.199Z,85.26
2023-01-17T09:50:31.997Z,85.21
2023-01-17T09:53:03.275Z,85.25
2023-01-17T09:55:40.042Z,85.19
2023-01-17T09:58:12.895Z,85.34
2023-01-17T10:00:54.225Z,85.14
2023-01-17T10:03:39.652Z,85.17
2023-01-17T10:06:27.435Z,84.78
2023-01-17T10:09:20.395Z,84.69
2023-01-17T10:11:57.054Z,84.31
2023-01-17T10:14:54.611Z,84.07
2023-01-17T10:17:21.231Z,83.86
2023-01-17T10:20:34.345Z,83.64
2023-01-17T10:23:04.155Z,83.42
2023-01-17T10:25:54.918Z,83.16
2023-01-17T10:28:30.652Z,82.70
2023-01-17T10:31:09.959Z,82.48
2023-01-17T10:33:50.179Z,82.55
2023-01-17T10:36:22.724Z,82.30
2023-01-17T10:38:56.393Z,82.12
2023-01-17T10:41:28.474Z,81.88
2023-01-17T10:44:15.566Z,81.44
2023-01-17T10:47:24.747Z,80.80
2023-01-17T10:49:53.898Z,80.86
2023-01-17T10:52:26.415Z,80.74
2023-01-17T10:55:14.270Z,80.36
2023-01-17T10:57:45.923Z,80.32
2023-01-17T11:00:18.610Z,80.48
2023-01-17T11:02:50.574Z,80.00
2023-01-17T11:05:29.258Z,79.56
2023-01-17T11:08:07.479Z,79.11
2023-01-17T11:10:43.359Z,78.66
2023-01-17T11:13:28.228Z,77.93
2023-01-17T11:15:59.129Z,77.79
2023-01-17T11:18:29.994Z,77.30
2023-01-17T11:21:17.548Z,76.89
2023-01-17T11:23:50.923Z,76.67
2023-01-17T11:26:32.866Z,76.20
2023-01-17T11:29:25.560Z,75.92
2023-01-17T11:31:52.636Z,75.98
2023-01-17T11:34:25.092Z,75.64
2023-01-17T11:37:17.098Z,75.61
2023-01-17T11:39:44.565Z,75.18
2023-01-17T11:42:35.412Z,74.99
2023-01-17T11:45:25.624Z,74.66
2023-01-17T11:48:05.854Z,74.58
2023-01-17T11:50:32.437Z,74.62
2023-01-17T11:53:26.806Z,74.04
2023-01-17T11:55:58.228Z,73.90
2023-01-17T11:58:26.768Z,73.96
2023-01-17T12:01:07.876Z,73.70
2023-01-17T12:03:52.099Z,73.61
2023-01-17T12:06:30.918Z,73.15
2023-01-17T12:09:09.808Z,72.79
2023-01-17T12:12:13.530Z,72.68
2023-01-17T12:14:54.260Z,72.80
2023-01-17T12:17:32.992Z,72.99
2023-01-17T12:20:06.284Z,72.88
2023-01-17T12:22:52.096Z,73.22
2023-01-17T12:25:24.953Z,73.41
2023-01-17T12:28:22.368Z,73.15
2023-01-17T12:31:16.032Z,73.38
2023-01-17T12:33:50.968Z,72.88
2023-01-17T12:36:49.471Z,72.95
2023-01-17T12:39:20.656Z,72.44
2023-01-17T12:41:56.481Z,72.25
2023-01-17T12:44:51.863Z,71.74
2023-01-17T12:47:20.867Z,71.37
2023-01-17T12:50:03.317Z,70.89
2023-01-17T12:52:37.371Z,70.67
2023-01-17T12:55:13.810Z,70.06
2023-01-17T12:57:45.288Z,69.58
2023-01-17T13:00:23.176Z,69.52
2023-01-17T13:03:08.555Z,69.49
2023-01-17T13:05:45.329Z,69.50
2023-01-17T13:08:41.755Z,69.22
2023-01-17T13:11:28.388Z,68.94
2023-01-17T13:13:58.019Z,68.60
2023-01-17T13:16:33.982Z,68.39
2023-01-17T13:19:11.359Z,68.41
2023-01-17T13:21:38.262Z,68.42
2023-01-17T13:24:19.651Z,68.41
2023-01-17T13:26:55.789Z,68.44
2023-01-17T13:29:53.392Z,68.33
2023-01-17T13:32:38.975Z,68.15
2023-01-17T13:35:24.010Z,67.93
2023-01-17T13:38:16.553Z,67.89
2023-01-17T13:40:49.321Z,67.36
2023-01-17T13:43:24.337Z,67.08
2023-01-17T13:45:53.722Z,66.98
2023-01-17T13:48:23.406Z,67.08
2023-01-17T13:51:20.334Z,67.04
2023-01-17T13:53:47.954Z,66.88
2023-01-17T13:56:31.602Z,66.86
2023-01-17T13:59:02.858Z,67.02
2023-01-17T14:01:32.618Z,66.98
2023-01-17T14:03:59.147Z,67.25
2023-01-17T14:06:29.020Z,67.31
2023-01-17T14:09:18.600Z,67.28
2023-01-17T14:12:23.866Z,67.29
2023-01-17T14:14:56.952Z,67.33
2023-01-17T14:17:58.132Z,67.52
2023-01-17T14:20:28.215Z,67.66
2023-01-17T14:23:01.528Z,68.05
2023-01-17T14:25:39.240Z,68.35
2023-01-17T14:28:31.873Z,68.57
2023-01-17T14:31:03.110Z,68.67
2023-01-17T14:33:35.458Z,68.74
2023-01-17T14:36:05.884Z,68.81
2023-01-17T14:38:34.224Z,68.92
2023-01-17T14:41:08.748Z,69.02
2023-01-17T14:43:42.404Z,69.30
2023-01-17T14:46:18.894Z,69.27
2023-01-17T14:48:46.161Z,69.70
2023-01-17T14:51:14.986Z,69.91
2023-01-17T14:53:52.617Z,70.34
2023-01-17T14:56:20.441Z,70.51
2023-01-17T14:58:47.181Z,70.88
2023-01-17T15:01:21.288Z,70.89
2023-01-17T15:03:55.232Z,71.12
2023-01-17T15:06:32.667Z,71.25
2023-01-17T15:09:03.666Z,71.27
2023-01-17T15:11:35.375Z,71.80
2023-01-17T15:14:06.069Z,71.83
2023-01-17T15:16:38.151Z,72.08
2023-01-17T15:19:15.122Z,72.42
2023-01-17T15:21:44.002Z,73.06
2023-01-17T15:24:18.356Z,73.54
2023-01-17T15:26:45.538Z,73.67
2023-01-17T15:29:27.138Z,74.47
2023-01-17T15:31:58.308Z,74.66
2023-01-17T15:34:29.732Z,74.98
2023-01-17T15:37:03.764Z,75.25
2023-01-17T15:39:34.422Z,75.46
2023-01-17T15:42:05.319Z,75.70
2023-01-17T15:44:49.389Z,75.87
2023-01-17T15:47:33.113Z,76.09
2023-01-17T15:50:03.262Z,76.23
2023-01-17T15:52:30.390Z,76.64
2023-01-17T15:55:12.637Z,76.84
2023-01-17T15:57:40.070Z,77.10
2023-01-17T16:00:15.093Z,77.25
2023-01-17T16:02:44.242Z,77.65
2023-01-17T16:05:42.128Z,77.97
2023-01-17T16:08:08.707Z,78.17
2023-01-17T16:10:37.881Z,78.23
2023-01-17T16:13:10.703Z,78.53
2023-01-17T16:15:38.227Z,78.72
2023-01-17T16:18:15.788Z,78.64
2023-01-17T16:21:05.773Z,78.99
2023-01-17T16:23:32.713Z,79.26
2023-01-17T16:25:59.253Z,79.59
2023-01-17T16:28:25.872Z,79.92
2023-01-17T16:30:54.186Z,80.00
2023-01-17T16:33:20.816Z,80.24
2023-01-17T16:35:47.490Z,80.41
2023-01-17T16:38:19.863Z,80.61
2023-01-17T16:40:47.549Z,80.57
2023-01-17T16:43:16.070Z,80.49
2023-01-17T16:45:45.884Z,80.63
2023-01-17T16:48:13.033Z,81.16
2023-01-17T16:50:48.368Z,80.99
2023-01-17T16:53:16.256Z,81.13
2023-01-17T16:55:43.892Z,81.01
2023-01-17T16:58:10.911Z,81.41
2023-01-17T17:00:37.744Z,81.47
2023-01-17T17:03:04.342Z,81.48
2023-01-17T17:05:33.590Z,81.70
2023-01-17T17:08:00.964Z,81.83
2023-01-17T17:10:27.870Z,81.95
2023-01-17T17:12:54.644Z,82.12
2023-01-17T17:15:21.636Z,82.20
2023-01-17T17:17:48.391Z,82.20
2023-01-17T17:20:15.812Z,82.31
2023-01-17T17:22:44.424Z,82.35
2023-01-17T17:25:12.214Z,82.48
2023-01-17T17:27:39.126Z,82.59
2023-01-17T17:30:06.461Z,82.66
2023-01-17T17:32:33.006Z,82.78
2023-01-17T17:34:59.668Z,82.88
2023-01-17T17:37:29.061Z,83.14
2023-01-17T17:39:56.832Z,83.27
2023-01-17T17:42:23.827Z,83.21
2023-01-17T17:44:51.459Z,83.19
2023-01-17T17:47:18.206Z,83.09
2023-01-17T17:49:44.892Z,83.45
2023-01-17T17:52:11.892Z,83.60
2023-01-17T17:54:38.632Z,83.55
2023-01-17T17:57:05.992Z,83.33
2023-01-17T17:59:32.583Z,83.29
2023-01-17T18:02:00.130Z,83.49
2023-01-17T18:04:27.443Z,83.50
2023-01-17T18:06:57.736Z,83.53
2023-01-17T18:09:24.558Z,83.65
2023-01-17T18:11:51.246Z,83.64
2023-01-17T18:14:20.976Z,83.96
2023-01-17T18:16:48.278Z,83.81
2023-01-17T18:19:21.030Z,83.88
2023-01-17T18:21:48.866Z,83.93
2023-01-17T18:24:17.623Z,83.83
2023-01-17T18:26:46.767Z,83.97
2023-01-17T18:29:16.476Z,83.70
2023-01-17T18:31:44.821Z,83.68
2023-01-17T18:34:16.778Z,83.96
2023-01-17T18:36:43.935Z,83.94
2023-01-17T18:39:19.621Z,84.10
2023-01-17T18:41:46.678Z,84.00
2023-01-17T18:44:13.572Z,84.15
2023-01-17T18:46:42.144Z,84.13
2023-01-17T18:49:16.663Z,83.86
2023-01-17T18:51:46.667Z,83.75
2023-01-17T18:54:13.603Z,83.99
2023-01-17T18:56:40.375Z,84.08
2023-01-17T18:59:07.159Z,84.38
2023-01-17T19:01:35.866Z,84.64
2023-01-17T19:04:04.283Z,84.63
2023-01-17T19:06:37.177Z,84.67
2023-01-17T19:09:06.450Z,84.53
2023-01-17T19:11:33.924Z,84.48
2023-01-17T19:14:01.568Z,84.41
2023-01-17T19:16:30.622Z,84.33
2023-01-17T19:19:07.416Z,84.55
2023-01-17T19:21:34.755Z,84.69
2023-01-17T19:24:01.790Z,84.87
2023-01-17T19:26:29.360Z,85.14
2023-01-17T19:28:58.822Z,84.90
2023-01-17T19:31:28.146Z,84.83
2023-01-17T19:33:57.622Z,84.70
2023-01-17T19:36:26.929Z,85.03
2023-01-17T19:39:03.948Z,85.17
2023-01-17T19:41:32.559Z,85.30
2023-01-17T19:44:05.167Z,85.24
2023-01-17T19:46:32.543Z,85.42
2023-01-17T19:48:59.720Z,85.41
2023-01-17T19:51:28.032Z,85.34
2023-01-17T19:53:55.863Z,85.33
2023-01-17T19:56:26.283Z,85.16
2023-01-17T19:58:54.484Z,85.02
2023-01-17T20:01:24.833Z,85.21
2023-01-17T20:03:52.252Z,85.34
2023-01-17T20:06:21.615Z,85.51
2023-01-17T20:08:48.775Z,85.39
2023-01-17T20:11:22.123Z,85.54
2023-01-17T20:13:53.563Z,85.65
2023-01-17T20:16:21.082Z,85.62
2023-01-17T20:18:51.931Z,85.66
2023-01-17T20:21:21.493Z,85.76
2023-01-17T20:23:49.364Z,85.88
2023-01-17T20:26:19.136Z,86.29
2023-01-17T20:28:47.753Z,86.27
2023-01-17T20:31:20.166Z,86.07
2023-01-17T20:33:50.404Z,85.84
2023-01-17T20:36:19.442Z,85.83
2023-01-17T20:38:46.568Z,85.60
2023-01-17T20:41:18.635Z,85.59
2023-01-17T20:43:47.710Z,85.41
2023-01-17T20:46:15.820Z,85.28
2023-01-17T20:48:51.362Z,85.14
2023-01-17T20:51:18.943Z,85.24
2023-01-17T20:53:46.954Z,85.13
2023-01-17T20:56:15.489Z,85.12
2023-01-17T20:58:42.876Z,84.99
2023-01-17T21:01:11.864Z,85.27
2023-01-17T21:03:39.825Z,85.22
2023-01-17T21:06:09.153Z,85.26
2023-01-17T21:08:41.304Z,85.29
2023-01-17T21:11:17.221Z,85.22
2023-01-17T21:13:52.694Z,85.14
2023-01-17T21:16:23.124Z,85.61
2023-01-17T21:18:52.794Z,85.73
2023-01-17T21:21:30.801Z,85.43
2023-01-17T21:23:59.252Z,85.68
2023-01-17T21:26:27.902Z,85.57
2023-01-17T21:28:54.807Z,85.55
2023-01-17T21:31:25.006Z,85.39
2023-01-17T21:34:00.479Z,85.60
2023-01-17T21:36:46.662Z,85.44
2023-01-17T21:39:17.464Z,85.35
2023-01-17T21:41:48.101Z,85.47
2023-01-17T21:44:16.969Z,85.73
2023-01-17T21:46:45.436Z,85.45
2023-01-17T21:49:12.327Z,85.62
2023-01-17T21:51:54.127Z,85.52
2023-01-17T21:54:42.092Z,85.72
2023-01-17T21:57:28.274Z,85.62
2023-01-17T21:59:55.237Z,85.95
2023-01-17T22:02:21.982Z,86.00
2023-01-17T22:04:48.893Z,86.30
2023-01-17T22:07:16.600Z,86.44
2023-01-17T22:09:43.197Z,86.37
2023-01-17T22:12:09.817Z,86.21
2023-01-17T22:14:38.089Z,86.31
2023-01-17T22:17:04.698Z,86.37
2023-01-17T22:19:31.492Z,86.53
2023-01-17T22:21:58.069Z,86.58
2023-01-17T22:24:24.765Z,86.93
2023-01-17T22:26:51.317Z,86.48
2023-01-17T22:29:19.090Z,86.46
2023-01-17T22:31:45.976Z,86.73
2023-01-17T22:34:14.036Z,86.60
2023-01-17T22:36:41.094Z,86.77
2023-01-17T22:39:09.378Z,86.94
2023-01-17T22:41:38.000Z,86.92
2023-01-17T22:44:08.620Z,87.03
2023-01-17T22:46:37.314Z,87.00
2023-01-17T22:49:05.909Z,87.31
2023-01-17T22:51:32.497Z,87.32
2023-01-17T22:54:03.441Z,87.31
2023-01-17T22:56:32.843Z,87.42
2023-01-17T22:59:04.199Z,87.36
2023-01-17T23:01:32.745Z,87.33
2023-01-17T23:04:04.338Z,87.45
2023-01-17T23:06:33.190Z,87.37
2023-01-17T23:09:02.815Z,87.29
2023-01-17T23:11:41.290Z,87.50
2023-01-17T23:14:14.962Z,87.54
2023-01-17T23:17:16.838Z,87.55
2023-01-17T23:19:51.068Z,87.59
2023-01-17T23:22:27.202Z,87.96
2023-01-17T23:25:01.594Z,88.04
2023-01-17T23:27:48.223Z,88.21
2023-01-17T23:30:19.586Z,88.40
2023-01-17T23:32:51.857Z,88.63
2023-01-17T23:35:20.744Z,88.92
2023-01-17T23:38:07.877Z,89.03
2023-01-17T23:40:36.541Z,89.26
2023-01-17T23:43:22.323Z,89.42
2023-01-17T23:45:53.106Z,89.48
2023-01-17T23:48:20.960Z,89.79
2023-01-17T23:50:48.636Z,89.78
2023-01-17T23:53:22.475Z,90.07
2023-01-17T23:55:54.947Z,90.05
2023-01-17T23:58:24.335Z,90.21
